createdAt,value
2023-03-06T00:01:34.415Z,9.98
2023-03-06T00:04:01.029Z,8.52
2023-03-06T00:06:27.655Z,7.85
2023-03-06T00:08:54.679Z,7.82
2023-03-06T00:11:21.257Z,8.77
2023-03-06T00:13:47.811Z,7.90
2023-03-06T00:16:14.980Z,8.18
2023-03-06T00:18:44.008Z,10.30
2023-03-06T00:21:10.493Z,8.10
2023-03-06T00:23:37.113Z,8.48
2023-03-06T00:26:07.669Z,7.93
2023-03-06T00:28:35.407Z,7.63
2023-03-06T00:31:02.207Z,7.97
2023-03-06T00:33:28.824Z,10.05
2023-03-06T00:35:55.294Z,7.47
2023-03-06T00:38:21.810Z,7.53
2023-03-06T00:40:49.229Z,7.43
2023-03-06T00:43:15.945Z,8.65
2023-03-06T00:45:43.027Z,8.07
2023-03-06T00:48:10.860Z,11.35
2023-03-06T00:50:37.572Z,8.00
2023-03-06T00:53:04.128Z,9.80
2023-03-06T00:55:31.124Z,8.10
2023-03-06T00:57:57.682Z,8.65
2023-03-06T01:00:26.359Z,8.80
2023-03-06T01:02:53.691Z,9.50
2023-03-06T01:05:22.093Z,10.43
2023-03-06T01:07:48.558Z,8.40
2023-03-06T01:10:15.187Z,9.23
2023-03-06T01:12:41.835Z,8.15
2023-03-06T01:15:09.136Z,8.80
2023-03-06T01:17:36.008Z,11.10
2023-03-06T01:20:03.155Z,6.93
2023-03-06T01:22:30.409Z,8.50
2023-03-06T01:24:57.002Z,9.00
2023-03-06T01:27:23.688Z,9.23
2023-03-06T01:29:50.224Z,9.98
2023-03-06T01:32:16.755Z,9.73
2023-03-06T01:34:43.433Z,10.80
2023-03-06T01:37:10.168Z,10.82
2023-03-06T01:39:36.661Z,10.32
2023-03-06T01:42:03.354Z,9.73
2023-03-06T01:44:30.370Z,10.85
2023-03-06T01:46:56.856Z,13.43
2023-03-06T01:49:31.102Z,9.90
2023-03-06T01:52:02.132Z,11.23
2023-03-06T01:54:31.903Z,10.23
2023-03-06T01:57:09.342Z,9.40
2023-03-06T01:59:36.202Z,9.48
2023-03-06T02:02:03.861Z,11.90
2023-03-06T02:04:30.772Z,10.75
2023-03-06T02:06:59.334Z,11.65
2023-03-06T02:09:30.096Z,10.40
2023-03-06T02:11:56.632Z,9.73
2023-03-06T02:14:23.480Z,11.00
2023-03-06T02:16:50.661Z,10.73
2023-03-06T02:19:26.660Z,11.23
2023-03-06T02:21:53.190Z,10.82
2023-03-06T02:24:38.378Z,11.50
2023-03-06T02:27:06.901Z,11.38
2023-03-06T02:29:33.665Z,10.57
2023-03-06T02:32:02.844Z,10.70
2023-03-06T02:34:29.391Z,9.73
2023-03-06T02:37:00.808Z,11.38
2023-03-06T02:39:30.228Z,12.77
2023-03-06T02:44:24.467Z,10.18
2023-03-06T02:46:51.261Z,10.60
2023-03-06T02:49:18.052Z,10.90
2023-03-06T02:51:44.700Z,9.85
2023-03-06T02:54:11.944Z,12.27
2023-03-06T02:56:38.629Z,12.93
2023-03-06T02:59:10.793Z,11.63
2023-03-06T03:01:38.092Z,11.45
2023-03-06T03:04:04.822Z,12.60
2023-03-06T03:06:32.409Z,13.30
2023-03-06T03:08:59.230Z,10.95
2023-03-06T03:11:25.854Z,11.35
2023-03-06T03:13:53.192Z,12.73
2023-03-06T03:16:23.806Z,10.90
2023-03-06T03:18:51.166Z,11.18
2023-03-06T03:21:20.425Z,10.77
2023-03-06T03:23:48.223Z,10.82
2023-03-06T03:26:17.837Z,11.88
2023-03-06T03:28:50.194Z,10.50
2023-03-06T03:31:19.560Z,10.45
2023-03-06T03:33:46.512Z,12.32
2023-03-06T03:36:13.669Z,12.05
2023-03-06T03:38:44.349Z,14.75
2023-03-06T03:41:11.669Z,11.38
2023-03-06T03:43:38.365Z,11.05
2023-03-06T03:46:06.059Z,10.75
2023-03-06T03:48:33.443Z,11.90
2023-03-06T03:51:11.826Z,12.55
2023-03-06T03:53:44.197Z,11.25
2023-03-06T03:56:13.242Z,9.77
2023-03-06T03:58:48.596Z,10.95
2023-03-06T04:01:15.914Z,10.85
2023-03-06T04:03:42.706Z,9.93
2023-03-06T04:06:10.649Z,9.13
2023-03-06T04:08:38.166Z,10.77
2023-03-06T04:11:05.241Z,12.27
2023-03-06T04:13:32.392Z,10.18
2023-03-06T04:15:59.757Z,12.95
2023-03-06T04:18:28.680Z,11.20
2023-03-06T04:20:59.427Z,13.23
2023-03-06T04:23:27.885Z,11.13
2023-03-06T04:25:54.903Z,12.45
2023-03-06T04:28:22.442Z,11.35
2023-03-06T04:30:49.406Z,10.10
2023-03-06T04:33:17.456Z,11.13
2023-03-06T04:35:44.585Z,12.60
2023-03-06T04:38:17.562Z,14.23
2023-03-06T04:40:45.618Z,11.45
2023-03-06T04:43:12.533Z,14.55
2023-03-06T04:45:39.170Z,12.00
2023-03-06T04:48:06.254Z,12.77
2023-03-06T04:50:33.315Z,12.70
2023-03-06T04:53:01.312Z,11.93
2023-03-06T04:55:28.364Z,14.30
2023-03-06T04:57:55.308Z,11.23
2023-03-06T05:00:24.661Z,12.73
2023-03-06T05:05:18.631Z,13.05
2023-03-06T05:07:45.215Z,13.25
2023-03-06T05:10:13.785Z,13.80
2023-03-06T05:12:40.380Z,13.48
2023-03-06T05:15:08.189Z,14.90
2023-03-06T05:17:34.762Z,13.75
2023-03-06T05:20:01.415Z,13.88
2023-03-06T05:22:28.139Z,12.32
2023-03-06T05:24:54.722Z,15.27
2023-03-06T05:27:21.586Z,13.32
2023-03-06T05:29:48.445Z,15.10
2023-03-06T05:32:16.404Z,13.70
2023-03-06T05:34:43.334Z,13.40
2023-03-06T05:37:10.073Z,15.13
2023-03-06T05:39:37.449Z,15.52
2023-03-06T05:42:04.401Z,13.40
2023-03-06T05:44:33.320Z,15.85
2023-03-06T05:47:00.476Z,13.60
2023-03-06T05:49:31.916Z,13.48
2023-03-06T05:52:00.852Z,13.05
2023-03-06T05:54:27.438Z,15.38
2023-03-06T05:56:54.084Z,13.43
2023-03-06T05:59:20.757Z,15.43
2023-03-06T06:01:47.605Z,13.90
2023-03-06T06:04:14.371Z,13.45
2023-03-06T06:06:41.043Z,14.30
2023-03-06T06:09:07.880Z,13.18
2023-03-06T06:11:34.568Z,14.60
2023-03-06T06:14:01.407Z,13.65
2023-03-06T06:16:28.190Z,16.17
2023-03-06T06:18:54.868Z,15.38
2023-03-06T06:21:21.457Z,14.60
2023-03-06T06:23:48.229Z,20.88
2023-03-06T06:26:14.978Z,15.48
2023-03-06T06:28:41.841Z,16.52
2023-03-06T06:31:10.450Z,14.57
2023-03-06T06:33:37.063Z,14.85
2023-03-06T06:36:03.839Z,16.65
2023-03-06T06:38:30.435Z,15.00
2023-03-06T06:41:27.203Z,15.43
2023-03-06T06:43:43.495Z,14.93
2023-03-06T06:46:38.842Z,14.85
2023-03-06T06:48:56.356Z,15.23
2023-03-06T06:51:23.145Z,15.05
2023-03-06T06:53:52.636Z,14.68
2023-03-06T06:56:19.180Z,14.63
2023-03-06T06:58:45.737Z,14.75
2023-03-06T07:01:13.337Z,19.45
2023-03-06T07:03:40.606Z,16.27
2023-03-06T07:06:07.366Z,16.25
2023-03-06T07:08:34.476Z,18.60
2023-03-06T07:11:09.890Z,16.30
2023-03-06T07:13:36.445Z,16.15
2023-03-06T07:16:03.064Z,15.85
2023-03-06T07:18:30.130Z,20.70
2023-03-06T07:20:57.114Z,17.08
2023-03-06T07:23:26.403Z,15.63
2023-03-06T07:25:56.873Z,13.75
2023-03-06T07:28:23.669Z,18.85
2023-03-06T07:30:50.257Z,16.75
2023-03-06T07:33:16.913Z,18.50
2023-03-06T07:35:44.216Z,14.75
2023-03-06T07:38:10.954Z,18.10
2023-03-06T07:40:38.746Z,16.30
2023-03-06T07:43:18.775Z,15.13
2023-03-06T07:45:59.616Z,14.23
2023-03-06T07:48:27.357Z,16.50
2023-03-06T07:51:02.200Z,15.80
2023-03-06T07:53:29.675Z,14.75
2023-03-06T07:55:56.411Z,17.30
2023-03-06T07:58:23.487Z,17.98
2023-03-06T08:00:49.926Z,15.38
2023-03-06T08:03:16.481Z,20.42
2023-03-06T08:05:44.151Z,19.50
2023-03-06T08:08:11.236Z,21.05
2023-03-06T08:10:37.778Z,26.70
2023-03-06T08:13:04.717Z,23.60
2023-03-06T08:15:31.195Z,24.83
2023-03-06T08:17:57.613Z,23.40
2023-03-06T08:20:24.065Z,21.05
2023-03-06T08:22:50.472Z,21.92
2023-03-06T08:25:16.995Z,19.45
2023-03-06T08:27:43.713Z,20.88
2023-03-06T08:30:10.573Z,18.33
2023-03-06T08:32:37.557Z,22.08
2023-03-06T08:35:04.831Z,18.80
2023-03-06T08:37:31.321Z,17.10
2023-03-06T08:39:57.773Z,17.00
2023-03-06T08:42:24.267Z,18.45
2023-03-06T08:44:50.736Z,20.90
2023-03-06T08:47:17.157Z,18.35
2023-03-06T08:49:43.609Z,17.38
2023-03-06T08:52:11.026Z,17.30
2023-03-06T08:54:38.562Z,17.67
2023-03-06T08:57:05.018Z,18.50
2023-03-06T08:59:31.405Z,16.17
2023-03-06T09:01:57.909Z,18.33
2023-03-06T09:04:24.396Z,17.10
2023-03-06T09:06:50.974Z,21.55
2023-03-06T09:09:17.644Z,18.38
2023-03-06T09:11:44.058Z,17.67
2023-03-06T09:14:10.564Z,17.17
2023-03-06T09:16:36.986Z,17.67
2023-03-06T09:19:03.435Z,19.00
2023-03-06T09:21:29.856Z,18.27
2023-03-06T09:23:56.348Z,18.13
2023-03-06T09:26:28.032Z,17.20
2023-03-06T09:28:59.509Z,17.50
2023-03-06T09:31:26.028Z,18.52
2023-03-06T09:33:52.456Z,17.00
2023-03-06T09:36:20.819Z,17.17
2023-03-06T09:38:49.618Z,16.87
2023-03-06T09:41:33.290Z,16.80
2023-03-06T09:44:20.560Z,19.25
2023-03-06T09:47:18.978Z,17.20
2023-03-06T09:50:00.898Z,17.75
2023-03-06T09:52:45.901Z,16.92
2023-03-06T09:55:19.308Z,15.38
2023-03-06T09:58:07.501Z,16.50
2023-03-06T10:00:38.465Z,16.90
2023-03-06T10:03:16.088Z,15.70
2023-03-06T10:05:47.038Z,16.58
2023-03-06T10:08:30.292Z,18.63
2023-03-06T10:11:03.496Z,16.83
2023-03-06T10:13:45.961Z,15.27
2023-03-06T10:16:29.623Z,16.38
2023-03-06T10:19:00.470Z,21.40
2023-03-06T10:22:02.968Z,17.58
2023-03-06T10:24:43.228Z,16.40
2023-03-06T10:27:39.808Z,16.98
2023-03-06T10:30:20.968Z,14.98
2023-03-06T10:33:02.111Z,17.73
2023-03-06T10:35:32.026Z,15.05
2023-03-06T10:38:21.506Z,15.63
2023-03-06T10:40:55.741Z,17.75
2023-03-06T10:43:22.680Z,15.18
2023-03-06T10:45:51.627Z,14.38
2023-03-06T10:48:27.105Z,17.92
2023-03-06T10:51:21.090Z,14.50
2023-03-06T10:53:55.126Z,18.08
2023-03-06T10:56:28.747Z,16.42
2023-03-06T10:59:18.186Z,17.40
2023-03-06T11:01:50.087Z,17.42
2023-03-06T11:04:24.015Z,16.63
2023-03-06T11:07:15.941Z,16.30
2023-03-06T11:09:44.387Z,24.95
2023-03-06T11:12:37.697Z,13.83
2023-03-06T11:15:07.480Z,15.98
2023-03-06T11:17:37.249Z,15.48
2023-03-06T11:20:20.691Z,15.20
2023-03-06T11:22:51.240Z,15.95
2023-03-06T11:25:19.149Z,16.35
2023-03-06T11:27:47.272Z,14.77
2023-03-06T11:30:23.831Z,16.40
2023-03-06T11:33:02.922Z,16.40
2023-03-06T11:35:47.273Z,14.77
2023-03-06T11:38:19.190Z,14.38
2023-03-06T11:40:58.683Z,14.75
2023-03-06T11:43:29.956Z,16.60
2023-03-06T11:46:00.588Z,14.55
2023-03-06T11:48:32.409Z,15.45
2023-03-06T11:51:06.518Z,17.45
2023-03-06T11:53:35.289Z,15.48
2023-03-06T11:56:23.399Z,15.88
2023-03-06T11:59:20.840Z,15.13
2023-03-06T12:01:51.646Z,17.10
2023-03-06T12:04:36.711Z,15.43
2023-03-06T12:07:07.607Z,18.45
2023-03-06T12:09:51.961Z,15.57
2023-03-06T12:12:32.855Z,14.27
2023-03-06T12:15:08.667Z,15.57
2023-03-06T12:17:44.672Z,15.68
2023-03-06T12:20:23.367Z,14.20
2023-03-06T12:23:02.401Z,20.42
2023-03-06T12:25:42.071Z,15.73
2023-03-06T12:28:42.383Z,15.77
2023-03-06T12:31:15.679Z,15.43
2023-03-06T12:34:09.844Z,15.10
2023-03-06T12:36:51.736Z,14.70
2023-03-06T12:39:48.153Z,15.88
2023-03-06T12:42:40.731Z,16.08
2023-03-06T12:45:34.954Z,16.60
2023-03-06T12:48:02.050Z,15.15
2023-03-06T12:50:33.488Z,14.25
2023-03-06T12:53:05.796Z,13.85
2023-03-06T12:55:46.610Z,14.05
2023-03-06T12:58:28.114Z,15.60
2023-03-06T13:01:09.630Z,13.63
2023-03-06T13:04:02.710Z,13.35
2023-03-06T13:06:39.246Z,12.50
2023-03-06T13:09:18.940Z,11.52
2023-03-06T13:12:17.260Z,13.43
2023-03-06T13:14:53.862Z,13.63
2023-03-06T13:17:20.850Z,11.68
2023-03-06T13:19:47.952Z,11.88
2023-03-06T13:22:26.652Z,12.90
2023-03-06T13:25:33.322Z,13.65
2023-03-06T13:28:03.321Z,12.48
2023-03-06T13:30:38.642Z,11.02
2023-03-06T13:33:26.486Z,12.25
2023-03-06T13:35:54.009Z,11.48
2023-03-06T13:38:37.093Z,12.77
2023-03-06T13:41:21.910Z,13.95
2023-03-06T13:43:53.157Z,12.20
2023-03-06T13:46:27.274Z,12.43
2023-03-06T13:49:15.503Z,13.48
2023-03-06T13:51:47.493Z,12.60
2023-03-06T13:54:25.388Z,11.98
2023-03-06T13:57:13.795Z,12.15
2023-03-06T14:00:10.349Z,12.25
2023-03-06T14:02:48.956Z,12.85
2023-03-06T14:05:17.142Z,13.48
2023-03-06T14:07:48.024Z,10.95
2023-03-06T14:10:14.390Z,10.73
2023-03-06T14:12:44.354Z,12.00
2023-03-06T14:15:25.410Z,11.43
2023-03-06T14:18:01.747Z,10.77
2023-03-06T14:20:44.209Z,10.23
2023-03-06T14:23:51.284Z,9.27
2023-03-06T14:26:20.252Z,10.23
2023-03-06T14:28:56.461Z,10.60
2023-03-06T14:31:24.954Z,11.40
2023-03-06T14:33:59.902Z,11.18
2023-03-06T14:36:32.391Z,9.85
2023-03-06T14:39:04.126Z,9.13
2023-03-06T14:41:32.693Z,10.35
2023-03-06T14:44:16.572Z,10.50
2023-03-06T14:46:47.288Z,10.55
2023-03-06T14:49:15.300Z,8.68
2023-03-06T14:51:44.342Z,9.75
2023-03-06T14:54:15.786Z,10.55
2023-03-06T14:56:44.009Z,14.15
2023-03-06T14:59:12.471Z,9.57
2023-03-06T15:01:42.053Z,9.17
2023-03-06T15:04:23.379Z,8.73
2023-03-06T15:06:49.997Z,8.90
2023-03-06T15:09:24.368Z,8.15
2023-03-06T15:12:02.757Z,8.57
2023-03-06T15:14:32.143Z,9.03
2023-03-06T15:19:47.453Z,11.85
2023-03-06T15:22:30.712Z,9.55
2023-03-06T15:25:22.784Z,8.43
2023-03-06T15:27:51.557Z,7.75
2023-03-06T15:30:30.233Z,6.97
2023-03-06T15:33:17.943Z,9.27
2023-03-06T15:36:01.616Z,7.20
2023-03-06T15:38:40.794Z,7.13
2023-03-06T15:41:21.058Z,6.18
2023-03-06T15:43:48.623Z,5.78
2023-03-06T15:46:15.107Z,15.73
2023-03-06T15:48:54.930Z,19.98
2023-03-06T15:51:21.379Z,8.82
2023-03-06T15:53:47.960Z,9.82
2023-03-06T15:56:14.389Z,10.15
2023-03-06T15:58:41.342Z,10.85
2023-03-06T16:01:13.177Z,10.13
2023-03-06T16:03:39.627Z,10.27
2023-03-06T16:06:06.046Z,14.15
2023-03-06T16:08:32.475Z,11.80
2023-03-06T16:10:59.111Z,10.85
2023-03-06T16:13:27.258Z,11.73
2023-03-06T16:15:54.336Z,11.52
2023-03-06T16:18:20.828Z,12.05
2023-03-06T16:20:47.257Z,11.55
2023-03-06T16:23:15.252Z,13.23
2023-03-06T16:25:43.604Z,12.18
2023-03-06T16:28:12.184Z,12.20
2023-03-06T16:30:38.839Z,14.50
2023-03-06T16:33:05.649Z,11.52
2023-03-06T16:35:32.072Z,13.25
2023-03-06T16:37:59.850Z,10.85
2023-03-06T16:40:32.422Z,13.00
2023-03-06T16:42:59.056Z,12.77
2023-03-06T16:45:25.517Z,11.93
2023-03-06T16:47:52.151Z,13.52
2023-03-06T16:50:40.535Z,14.20
2023-03-06T16:53:07.693Z,13.30
2023-03-06T16:55:34.688Z,13.50
2023-03-06T16:58:01.128Z,13.80
2023-03-06T17:00:32.909Z,16.48
2023-03-06T17:03:00.859Z,13.98
2023-03-06T17:05:28.660Z,17.38
2023-03-06T17:07:55.773Z,21.25
2023-03-06T17:10:26.140Z,17.33
2023-03-06T17:12:52.986Z,18.80
2023-03-06T17:15:19.772Z,17.77
2023-03-06T17:17:46.327Z,17.83
2023-03-06T17:20:13.505Z,17.17
2023-03-06T17:22:41.408Z,18.08
2023-03-06T17:25:08.996Z,20.00
2023-03-06T17:27:36.354Z,19.02
2023-03-06T17:30:04.258Z,19.58
2023-03-06T17:32:32.158Z,17.77
2023-03-06T17:34:58.825Z,21.15
2023-03-06T17:38:01.434Z,19.17
2023-03-06T17:40:29.698Z,17.52
2023-03-06T17:42:56.480Z,18.57
2023-03-06T17:45:22.970Z,18.60
2023-03-06T17:47:53.378Z,19.70
2023-03-06T17:50:20.046Z,19.02
2023-03-06T17:52:46.970Z,19.92
2023-03-06T17:55:13.848Z,18.95
2023-03-06T17:57:40.418Z,19.85
2023-03-06T18:00:07.738Z,20.17
2023-03-06T18:02:38.800Z,18.63
2023-03-06T18:05:06.209Z,18.55
2023-03-06T18:07:32.735Z,19.80
2023-03-06T18:09:59.278Z,20.75
2023-03-06T18:12:25.963Z,18.00
2023-03-06T18:14:52.487Z,19.27
2023-03-06T18:17:19.020Z,19.05
2023-03-06T18:19:45.549Z,17.83
2023-03-06T18:22:12.068Z,19.73
2023-03-06T18:24:38.574Z,17.45
2023-03-06T18:27:05.187Z,17.60
2023-03-06T18:29:31.679Z,17.83
2023-03-06T18:31:59.278Z,17.67
2023-03-06T18:34:26.062Z,20.48
2023-03-06T18:36:52.977Z,16.58
2023-03-06T18:39:21.442Z,19.40
2023-03-06T18:41:48.330Z,17.17
2023-03-06T18:44:16.171Z,18.60
2023-03-06T18:46:43.332Z,23.23
2023-03-06T18:49:11.461Z,19.58
2023-03-06T18:51:38.238Z,21.30
2023-03-06T18:54:06.321Z,23.02
2023-03-06T18:56:33.361Z,19.75
2023-03-06T18:59:06.752Z,30.10
2023-03-06T19:01:33.818Z,21.83
2023-03-06T19:04:04.085Z,27.02
2023-03-06T19:06:30.948Z,22.95
2023-03-06T19:08:58.821Z,22.73
2023-03-06T19:11:26.883Z,22.83
2023-03-06T19:13:53.988Z,24.65
2023-03-06T19:16:23.590Z,23.02
2023-03-06T19:18:50.481Z,23.65
2023-03-06T19:21:21.825Z,23.55
2023-03-06T19:23:48.733Z,25.83
2023-03-06T19:26:16.264Z,23.17
2023-03-06T19:28:43.256Z,21.63
2023-03-06T19:31:19.571Z,22.48
2023-03-06T19:33:47.608Z,21.92
2023-03-06T19:36:15.066Z,22.00
2023-03-06T19:38:42.157Z,21.25
2023-03-06T19:41:13.362Z,20.95
2023-03-06T19:43:41.813Z,22.30
2023-03-06T19:46:14.721Z,27.80
2023-03-06T19:48:42.189Z,20.30
2023-03-06T19:51:09.797Z,21.80
2023-03-06T19:53:36.655Z,20.30
2023-03-06T19:56:08.731Z,21.23
2023-03-06T19:58:35.728Z,22.98
2023-03-06T20:01:10.707Z,21.67
2023-03-06T20:03:37.569Z,25.00
2023-03-06T20:06:08.961Z,23.98
2023-03-06T20:08:36.422Z,25.60
2023-03-06T20:11:03.168Z,27.55
2023-03-06T20:13:30.042Z,27.23
2023-03-06T20:15:57.871Z,24.63
2023-03-06T20:18:24.372Z,22.45
2023-03-06T20:21:01.129Z,21.67
2023-03-06T20:23:27.808Z,22.15
2023-03-06T20:25:54.713Z,21.55
2023-03-06T20:28:22.172Z,22.65
2023-03-06T20:30:49.177Z,22.98
2023-03-06T20:33:16.732Z,25.33
2023-03-06T20:35:43.826Z,22.48
2023-03-06T20:38:10.764Z,21.17
2023-03-06T20:40:38.887Z,23.38
2023-03-06T20:43:05.602Z,23.75
2023-03-06T20:45:32.792Z,25.23
2023-03-06T20:47:59.254Z,22.52
2023-03-06T20:50:26.231Z,23.90
2023-03-06T20:52:56.688Z,21.60
2023-03-06T20:55:23.197Z,22.35
2023-03-06T20:57:50.481Z,22.73
2023-03-06T21:00:18.653Z,21.52
2023-03-06T21:02:45.244Z,21.98
2023-03-06T21:05:11.728Z,21.17
2023-03-06T21:07:39.458Z,20.83
2023-03-06T21:10:06.787Z,23.15
2023-03-06T21:12:33.272Z,24.95
2023-03-06T21:14:59.869Z,22.80
2023-03-06T21:17:27.393Z,19.73
2023-03-06T21:19:53.835Z,23.10
2023-03-06T21:22:20.273Z,22.02
2023-03-06T21:24:46.768Z,22.15
2023-03-06T21:27:13.282Z,22.13
2023-03-06T21:29:39.775Z,23.65
2023-03-06T21:32:06.252Z,24.58
2023-03-06T21:34:33.229Z,24.38
2023-03-06T21:36:59.812Z,24.40
2023-03-06T21:39:26.246Z,25.48
2023-03-06T21:41:52.754Z,27.55
2023-03-06T21:44:19.644Z,27.13
2023-03-06T21:46:46.446Z,24.98
2023-03-06T21:49:12.906Z,26.73
2023-03-06T21:51:39.549Z,26.35
2023-03-06T21:54:06.599Z,24.88
2023-03-06T21:56:33.514Z,24.60
2023-03-06T21:59:00.153Z,25.90
2023-03-06T22:01:28.581Z,27.33
2023-03-06T22:03:55.408Z,28.47
2023-03-06T22:06:24.137Z,29.77
2023-03-06T22:08:51.110Z,30.15
2023-03-06T22:11:19.871Z,30.98
2023-03-06T22:13:47.943Z,28.90
2023-03-06T22:16:15.147Z,29.63
2023-03-06T22:18:46.045Z,27.63
2023-03-06T22:21:14.972Z,27.05
2023-03-06T22:23:41.717Z,26.90
2023-03-06T22:26:12.529Z,28.27
2023-03-06T22:28:39.852Z,29.35
2023-03-06T22:31:14.733Z,27.38
2023-03-06T22:33:41.392Z,26.27
2023-03-06T22:36:10.805Z,26.65
2023-03-06T22:38:39.857Z,25.13
2023-03-06T22:41:07.188Z,27.10
2023-03-06T22:43:34.638Z,26.48
2023-03-06T22:46:02.466Z,30.58
2023-03-06T22:48:29.183Z,24.65
2023-03-06T22:50:55.653Z,26.73
2023-03-06T22:53:22.098Z,26.25
2023-03-06T22:55:48.593Z,36.30
2023-03-06T22:58:15.317Z,27.30
2023-03-06T23:00:41.739Z,27.50
2023-03-06T23:03:08.296Z,27.98
2023-03-06T23:05:34.774Z,27.95
2023-03-06T23:08:01.198Z,30.98
2023-03-06T23:10:27.624Z,31.20
2023-03-06T23:13:13.453Z,29.70
2023-03-06T23:16:02.397Z,28.55
2023-03-06T23:18:47.401Z,27.38
2023-03-06T23:21:34.127Z,27.95
2023-03-06T23:24:19.430Z,28.48
2023-03-06T23:26:46.216Z,32.08
2023-03-06T23:29:12.915Z,30.30
2023-03-06T23:31:39.704Z,28.25
2023-03-06T23:34:06.244Z,28.35
2023-03-06T23:36:32.901Z,27.30
2023-03-06T23:38:59.357Z,27.27
2023-03-06T23:41:26.106Z,28.77
2023-03-06T23:43:55.056Z,30.08
2023-03-06T23:46:22.103Z,29.08
2023-03-06T23:48:48.554Z,29.52
2023-03-06T23:51:20.224Z,26.63
2023-03-06T23:53:47.956Z,27.45
2023-03-06T23:56:14.483Z,27.13
2023-03-06T23:58:41.139Z,28.10
